Time;durP1;ratioP1;P1;durP2;ratioP2;P2;SDS_P1;SDS_P2;PMS_P1;PMS_P2;Temp;Humidity;BMP_temperature;BMP_pressure;BME280_temperature;BME280_humidity;BME280_pressure;Samples;Min_cycle;Max_cycle;Signal;HPM_P1;HPM_P2
2021/04/14 00:00:42;;;;;;;2.37;2.17;;;6.60;60.50;;;;;;5074733;28;20445;-70
2021/04/14 00:03:13;;;;;;;3.30;2.70;;;6.60;60.80;;;;;;5074554;28;20460;-70
2021/04/14 00:05:40;;;;;;;2.77;2.13;;;6.60;60.80;;;;;;5074656;28;20483;-70
2021/04/14 00:08:07;;;;;;;2.40;2.20;;;6.60;61.20;;;;;;5074266;28;20957;-70
2021/04/14 00:10:36;;;;;;;2.40;2.20;;;6.50;61.10;;;;;;5074481;28;20452;-70
2021/04/14 00:13:03;;;;;;;2.70;2.13;;;6.50;61.20;;;;;;5074315;28;20601;-71
2021/04/14 00:15:34;;;;;;;4.00;2.47;;;6.40;61.20;;;;;;5074348;28;20444;-70
2021/04/14 00:18:00;;;;;;;2.40;2.10;;;6.40;61.30;;;;;;5074341;28;20452;-70
2021/04/14 00:20:27;;;;;;;3.73;2.07;;;6.40;61.50;;;;;;5074226;28;20444;-70
2021/04/14 00:22:54;;;;;;;4.80;2.57;;;6.40;61.70;;;;;;5074042;28;20476;-70
2021/04/14 00:25:27;;;;;;;3.10;2.50;;;6.30;61.70;;;;;;5074192;28;20445;-70
2021/04/14 00:27:53;;;;;;;2.73;1.87;;;6.30;62.30;;;;;;5074161;28;20800;-71
2021/04/14 00:30:21;;;;;;;3.17;2.40;;;6.20;62.10;;;;;;5074041;28;20498;-70
2021/04/14 00:32:48;;;;;;;3.67;2.13;;;6.20;62.30;;;;;;5073090;28;21039;-70
2021/04/14 00:35:14;;;;;;;3.73;2.83;;;6.20;62.40;;;;;;5073984;28;20464;-70
2021/04/14 00:37:41;;;;;;;2.47;2.07;;;6.20;62.60;;;;;;5073590;28;20451;-70
2021/04/14 00:40:12;;;;;;;3.50;2.50;;;6.20;62.30;;;;;;5073939;28;20445;-70
2021/04/14 00:42:39;;;;;;;2.73;2.40;;;6.10;62.10;;;;;;5073846;28;20495;-70
2021/04/14 00:45:06;;;;;;;2.60;2.40;;;6.10;62.60;;;;;;5073854;28;20440;-70
2021/04/14 00:47:33;;;;;;;2.43;2.23;;;6.20;62.70;;;;;;5073514;28;20957;-70
2021/04/14 00:49:59;;;;;;;2.50;2.30;;;6.20;62.80;;;;;;5073821;28;20444;-70
2021/04/14 00:52:25;;;;;;;2.50;2.30;;;6.20;62.50;;;;;;5073646;28;20484;-70
2021/04/14 00:54:51;;;;;;;2.47;2.27;;;6.20;62.40;;;;;;5073423;28;20942;-70
2021/04/14 00:57:18;;;;;;;2.77;2.23;;;6.10;62.50;;;;;;5073747;28;20844;-70
2021/04/14 00:59:45;;;;;;;4.43;2.63;;;6.10;62.90;;;;;;5073670;28;20467;-70
2021/04/14 01:02:11;;;;;;;2.67;2.40;;;6.00;63.10;;;;;;5073510;28;20472;-70
2021/04/14 01:04:37;;;;;;;3.13;2.43;;;5.90;62.90;;;;;;5073635;28;20448;-70
2021/04/14 01:07:03;;;;;;;3.60;3.13;;;5.90;63.10;;;;;;5073282;28;20456;-70
2021/04/14 01:09:30;;;;;;;3.97;2.40;;;5.90;63.40;;;;;;5073595;28;20445;-70
2021/04/14 01:11:57;;;;;;;2.30;2.10;;;5.90;63.40;;;;;;5073397;28;20471;-70
2021/04/14 01:14:24;;;;;;;3.77;2.23;;;5.80;63.40;;;;;;5073158;28;20460;-70
2021/04/14 01:16:51;;;;;;;2.20;2.00;;;5.80;63.90;;;;;;5073455;28;20773;-70
2021/04/14 01:19:17;;;;;;;2.20;2.00;;;5.70;64.10;;;;;;5073388;28;20449;-70
2021/04/14 01:21:44;;;;;;;2.60;2.33;;;5.70;64.60;;;;;;5073064;28;20874;-70
2021/04/14 01:24:13;;;;;;;2.20;2.00;;;5.70;64.60;;;;;;5073425;28;20449;-70
2021/04/14 01:26:40;;;;;;;4.30;2.20;;;5.60;65.20;;;;;;5073381;28;20474;-70
2021/04/14 01:29:08;;;;;;;2.30;2.10;;;5.60;65.20;;;;;;5073380;28;20525;-70
2021/04/14 01:31:34;;;;;;;2.23;2.03;;;5.50;65.50;;;;;;5073276;28;20436;-70
2021/04/14 01:34:02;;;;;;;2.30;2.10;;;5.50;65.60;;;;;;5073265;28;20484;-70
2021/04/14 01:36:28;;;;;;;5.63;2.60;;;5.50;65.80;;;;;;5073278;28;20452;-70
2021/04/14 01:38:56;;;;;;;2.50;2.30;;;5.50;65.90;;;;;;5073343;28;20456;-70
2021/04/14 01:41:22;;;;;;;2.50;2.30;;;5.50;65.60;;;;;;5073221;28;20463;-70
2021/04/14 01:43:49;;;;;;;2.10;2.00;;;5.50;65.80;;;;;;5074665;28;20533;-70
2021/04/14 01:46:15;;;;;;;3.10;2.50;;;5.50;66.00;;;;;;5077239;28;20451;-70
2021/04/14 01:48:41;;;;;;;4.93;2.37;;;5.40;65.50;;;;;;5077242;28;20440;-70
2021/04/14 01:51:07;;;;;;;3.53;3.03;;;5.40;65.90;;;;;;5076915;28;20440;-70
2021/04/14 01:53:33;;;;;;;2.90;2.23;;;5.30;66.00;;;;;;5076911;28;20488;-70
2021/04/14 01:56:01;;;;;;;2.90;2.33;;;5.30;66.10;;;;;;5077076;28;20822;-70
2021/04/14 01:58:29;;;;;;;2.57;2.37;;;5.30;66.00;;;;;;5077030;28;20448;-70
2021/04/14 02:00:59;;;;;;;3.00;2.70;;;5.30;65.90;;;;;;5076933;28;20484;-70
2021/04/14 02:03:29;;;;;;;6.03;2.90;;;5.40;65.80;;;;;;5076562;28;20981;-70
2021/04/14 02:05:56;;;;;;;3.37;3.07;;;5.40;65.60;;;;;;5076909;28;20425;-70
2021/04/14 02:08:22;;;;;;;3.30;2.80;;;5.40;65.60;;;;;;5076773;28;20455;-70
2021/04/14 02:10:51;;;;;;;4.00;2.90;;;5.40;65.40;;;;;;5076850;28;20452;-70
2021/04/14 02:13:21;;;;;;;4.33;2.03;;;5.40;66.50;;;;;;5076326;28;20510;-70
2021/04/14 02:15:47;;;;;;;3.33;2.50;;;5.30;65.50;;;;;;5076669;28;20444;-70
2021/04/14 02:18:13;;;;;;;2.20;2.07;;;5.30;65.80;;;;;;5076382;28;20961;-70
2021/04/14 02:20:39;;;;;;;2.50;2.07;;;5.20;65.70;;;;;;5077264;28;20505;-70
2021/04/14 02:23:15;;;;;;;2.90;2.37;;;5.10;65.80;;;;;;5076988;28;20808;-70
2021/04/14 02:25:41;;;;;;;3.10;2.80;;;5.10;66.10;;;;;;5076285;28;20779;-70
2021/04/14 02:28:08;;;;;;;3.53;2.40;;;5.00;66.40;;;;;;5076507;28;20780;-70
2021/04/14 02:30:35;;;;;;;2.73;2.00;;;5.00;66.60;;;;;;5076534;28;20458;-70
2021/04/14 02:33:01;;;;;;;2.87;2.47;;;5.00;66.90;;;;;;5076256;28;20494;-70
2021/04/14 02:35:28;;;;;;;3.00;2.60;;;4.90;66.90;;;;;;5076107;28;20458;-70
2021/04/14 02:37:55;;;;;;;2.70;2.47;;;4.90;66.90;;;;;;5076533;28;20451;-70
2021/04/14 02:40:22;;;;;;;3.70;3.40;;;4.80;67.00;;;;;;5076404;28;20456;-70
2021/04/14 02:42:48;;;;;;;3.97;2.80;;;4.80;67.10;;;;;;5076294;28;20467;-70
2021/04/14 02:45:17;;;;;;;3.47;2.53;;;4.90;67.30;;;;;;5076240;28;20455;-70
2021/04/14 02:47:44;;;;;;;3.27;2.93;;;4.80;67.20;;;;;;5076099;28;20444;-70
2021/04/14 02:50:12;;;;;;;3.37;3.07;;;4.80;67.20;;;;;;5076063;28;20443;-70
2021/04/14 02:52:38;;;;;;;5.00;2.63;;;4.80;67.20;;;;;;5075927;28;20475;-70
2021/04/14 02:55:05;;;;;;;7.87;2.93;;;4.80;67.20;;;;;;5075539;28;20459;-70
2021/04/14 02:57:32;;;;;;;5.73;3.00;;;4.80;67.20;;;;;;5097856;22;20936;-86
2021/04/14 02:59:58;;;;;;;2.83;2.53;;;4.80;67.80;;;;;;5060286;28;20531;-86
2021/04/14 03:02:24;;;;;;;3.00;2.70;;;4.70;68.00;;;;;;5060932;28;20468;-85
2021/04/14 03:04:51;;;;;;;3.67;3.03;;;4.70;68.10;;;;;;5062260;28;20434;-85
2021/04/14 03:07:18;;;;;;;3.90;2.83;;;4.60;68.20;;;;;;5061606;28;20475;-85
2021/04/14 03:09:44;;;;;;;4.50;2.53;;;4.60;68.50;;;;;;5061421;28;20477;-85
2021/04/14 03:12:11;;;;;;;3.73;2.87;;;4.60;68.60;;;;;;5060459;28;20449;-85
2021/04/14 03:14:37;;;;;;;7.53;2.90;;;4.60;68.40;;;;;;5063142;28;20446;-85
2021/04/14 03:17:04;;;;;;;3.37;3.07;;;4.60;68.50;;;;;;5062851;28;20452;-85
2021/04/14 03:19:30;;;;;;;5.33;2.73;;;4.60;68.50;;;;;;5064467;28;20440;-85
2021/04/14 03:21:57;;;;;;;5.13;3.00;;;4.50;68.40;;;;;;5063282;28;20470;-85
2021/04/14 03:24:23;;;;;;;4.87;2.97;;;4.60;68.80;;;;;;5063701;28;20444;-85
2021/04/14 03:26:50;;;;;;;4.77;3.57;;;4.50;68.60;;;;;;5063665;28;20450;-85
2021/04/14 03:29:16;;;;;;;3.73;3.43;;;4.50;68.60;;;;;;5060745;28;20440;-84
2021/04/14 03:31:42;;;;;;;4.63;3.17;;;4.50;68.40;;;;;;5060570;28;20444;-84
2021/04/14 03:34:09;;;;;;;4.30;3.20;;;4.50;68.50;;;;;;5060610;28;20478;-84
2021/04/14 03:36:35;;;;;;;4.63;3.10;;;4.40;68.60;;;;;;5061342;28;20441;-84
2021/04/14 03:39:03;;;;;;;3.70;3.40;;;4.40;68.90;;;;;;5061304;28;20444;-84
2021/04/14 03:41:29;;;;;;;3.53;2.83;;;4.40;68.90;;;;;;5059319;28;20461;-85
2021/04/14 03:43:55;;;;;;;5.90;3.47;;;4.40;69.60;;;;;;5059740;28;20449;-86
2021/04/14 03:46:23;;;;;;;4.40;3.87;;;4.40;69.50;;;;;;5060474;28;20510;-85
2021/04/14 03:48:50;;;;;;;3.80;3.20;;;4.40;69.80;;;;;;5062408;28;20428;-86
2021/04/14 03:51:16;;;;;;;5.07;4.33;;;4.40;69.70;;;;;;5059391;28;20459;-85
2021/04/14 03:53:43;;;;;;;5.20;4.30;;;4.40;69.80;;;;;;5058413;28;20499;-85
2021/04/14 03:56:13;;;;;;;5.70;4.27;;;4.30;70.10;;;;;;5061318;28;20491;-85
2021/04/14 03:58:41;;;;;;;3.97;3.60;;;4.30;70.10;;;;;;5061382;28;20459;-85
2021/04/14 04:01:09;;;;;;;7.10;4.60;;;4.30;70.10;;;;;;5060980;28;20451;-85
2021/04/14 04:03:36;;;;;;;6.17;4.10;;;4.30;70.10;;;;;;5062323;28;20882;-86
2021/04/14 04:06:03;;;;;;;3.40;3.00;;;4.20;70.00;;;;;;5059885;28;20448;-85
2021/04/14 04:08:30;;;;;;;3.63;3.23;;;4.20;70.40;;;;;;5057501;28;20442;-84
2021/04/14 04:10:56;;;;;;;3.67;3.33;;;4.20;70.70;;;;;;5056970;28;20435;-84
2021/04/14 04:13:24;;;;;;;4.60;3.43;;;4.20;70.80;;;;;;5056978;28;20492;-84
2021/04/14 04:15:50;;;;;;;5.47;3.60;;;4.30;71.20;;;;;;5056957;28;21010;-83
2021/04/14 04:18:17;;;;;;;8.70;3.67;;;4.20;70.90;;;;;;5057774;28;20820;-85
2021/04/14 04:20:43;;;;;;;3.77;3.37;;;4.30;71.00;;;;;;5057147;28;20937;-85
2021/04/14 04:23:10;;;;;;;6.53;3.30;;;4.30;70.90;;;;;;5057084;28;20475;-85
2021/04/14 04:25:37;;;;;;;6.27;3.67;;;4.20;71.10;;;;;;5058927;28;20458;-85
2021/04/14 04:28:05;;;;;;;4.17;3.77;;;4.20;71.30;;;;;;5057905;28;20453;-85
2021/04/14 04:30:32;;;;;;;4.40;4.00;;;4.20;71.60;;;;;;5059363;28;20465;-85
2021/04/14 04:33:00;;;;;;;6.63;4.17;;;4.20;71.60;;;;;;5060716;28;20542;-85
2021/04/14 04:35:28;;;;;;;6.33;4.87;;;4.30;71.90;;;;;;5059607;28;20506;-85
2021/04/14 04:37:54;;;;;;;5.97;4.40;;;4.30;72.00;;;;;;5059080;28;20804;-85
2021/04/14 04:40:21;;;;;;;5.83;4.30;;;4.30;71.50;;;;;;5059648;28;20497;-85
2021/04/14 04:42:48;;;;;;;7.93;4.90;;;4.30;71.50;;;;;;5059202;28;20466;-85
2021/04/14 04:45:15;;;;;;;7.83;5.20;;;4.30;71.60;;;;;;5059316;28;20440;-85
2021/04/14 04:47:43;;;;;;;8.03;4.70;;;4.30;72.10;;;;;;5058322;28;20458;-85
2021/04/14 04:50:10;;;;;;;7.87;4.40;;;4.20;72.40;;;;;;5059378;28;20499;-85
2021/04/14 04:52:36;;;;;;;20.60;5.00;;;4.30;72.60;;;;;;5059425;28;20486;-84
2021/04/14 04:55:03;;;;;;;10.27;5.63;;;4.30;72.50;;;;;;5058990;28;20448;-84
2021/04/14 04:57:29;;;;;;;10.23;5.13;;;4.40;72.40;;;;;;5057772;28;20452;-84
2021/04/14 04:59:56;;;;;;;11.17;5.17;;;4.40;72.50;;;;;;5057541;28;20449;-84
2021/04/14 05:05:53;;;;;;;16.70;5.37;;;4.40;72.40;;;;;;5056445;28;20388;-83
2021/04/14 05:08:19;;;;;;;9.67;4.93;;;4.40;72.60;;;;;;5060826;28;20807;-84
2021/04/14 05:10:56;;;;;;;12.90;6.03;;;4.40;72.70;;;;;;5062985;28;20460;-85
2021/04/14 05:13:23;;;;;;;11.50;4.87;;;4.40;72.80;;;;;;5058931;28;20495;-84
2021/04/14 05:15:49;;;;;;;9.43;4.83;;;4.20;72.50;;;;;;5057892;28;20451;-84
2021/04/14 05:18:17;;;;;;;12.87;5.00;;;4.20;73.10;;;;;;5055611;28;20459;-84
2021/04/14 05:20:43;;;;;;;10.20;4.70;;;4.20;73.80;;;;;;5056030;28;20452;-84
2021/04/14 05:23:11;;;;;;;13.30;5.30;;;4.30;74.30;;;;;;5056996;28;20873;-86
2021/04/14 05:25:40;;;;;;;12.17;5.30;;;4.40;74.60;;;;;;5056905;28;20436;-86
2021/04/14 05:28:09;;;;;;;16.53;5.73;;;4.40;74.60;;;;;;5056164;28;20454;-85
2021/04/14 05:30:36;;;;;;;10.83;5.53;;;4.50;74.90;;;;;;5056066;28;20460;-85
2021/04/14 05:33:03;;;;;;;8.60;5.43;;;4.60;74.90;;;;;;5055901;28;20492;-85
2021/04/14 05:35:29;;;;;;;12.40;5.30;;;4.70;74.50;;;;;;5056173;28;20485;-85
2021/04/14 05:37:55;;;;;;;16.87;7.40;;;4.70;74.30;;;;;;5056660;28;20440;-85
2021/04/14 05:40:23;;;;;;;7.30;4.60;;;4.70;74.40;;;;;;5055984;28;20850;-85
2021/04/14 05:42:50;;;;;;;12.00;5.93;;;4.80;74.90;;;;;;5056372;28;20468;-85
2021/04/14 05:45:20;;;;;;;10.67;5.30;;;4.90;75.00;;;;;;5056965;28;20483;-85
2021/04/14 05:47:46;;;;;;;9.90;5.90;;;4.90;75.00;;;;;;5057072;28;20463;-85
2021/04/14 05:50:15;;;;;;;12.80;6.90;;;5.00;75.00;;;;;;5056802;28;20444;-85
2021/04/14 05:52:42;;;;;;;16.73;4.87;;;5.10;74.80;;;;;;5056463;28;20484;-85
2021/04/14 05:55:11;;;;;;;15.53;5.70;;;5.10;74.70;;;;;;5057190;28;20460;-85
2021/04/14 05:57:38;;;;;;;15.17;5.77;;;5.20;74.70;;;;;;5056729;28;20530;-85
2021/04/14 06:00:07;;;;;;;11.30;6.90;;;5.20;74.80;;;;;;5057025;28;20529;-86
2021/04/14 06:02:33;;;;;;;14.03;5.80;;;5.30;74.70;;;;;;5057224;28;20475;-86
2021/04/14 06:04:59;;;;;;;17.10;5.53;;;5.30;74.60;;;;;;5058036;28;20448;-86
2021/04/14 06:07:26;;;;;;;14.40;6.13;;;5.40;74.70;;;;;;5056752;28;20524;-89
2021/04/14 06:09:52;;;;;;;15.20;6.10;;;5.40;74.70;;;;;;5063196;28;20480;-87
2021/04/14 06:12:19;;;;;;;11.93;6.17;;;5.40;74.70;;;;;;5057107;28;20469;-86
2021/04/14 06:14:46;;;;;;;17.60;5.87;;;5.40;74.90;;;;;;5056135;28;20545;-87
2021/04/14 06:17:12;;;;;;;15.73;5.87;;;5.50;74.90;;;;;;5056068;28;20502;-87
2021/04/14 06:19:39;;;;;;;23.13;6.43;;;5.60;74.50;;;;;;5055520;28;20437;-87
2021/04/14 06:22:05;;;;;;;19.70;7.30;;;5.60;73.90;;;;;;5055272;28;20528;-87
2021/04/14 06:24:32;;;;;;;15.70;6.67;;;5.70;73.80;;;;;;5054848;28;20437;-86
2021/04/14 06:27:01;;;;;;;15.00;7.47;;;5.80;73.40;;;;;;5055973;28;20446;-87
2021/04/14 06:40:31;;;;;;;20.23;8.03;;;6.20;70.00;;;;;;5058789;28;20447;-91
2021/04/14 06:43:03;;;;;;;17.73;6.90;;;6.30;70.30;;;;;;5058950;28;20550;-90
2021/04/14 06:45:35;;;;;;;16.53;6.50;;;6.40;70.70;;;;;;5058666;28;20548;-89
2021/04/14 06:48:21;;;;;;;15.67;7.87;;;6.50;71.80;;;;;;5057622;28;20438;-90
2021/04/14 06:50:52;;;;;;;27.77;7.30;;;6.60;72.70;;;;;;5057604;28;20442;-88
2021/04/14 06:53:26;;;;;;;12.67;7.50;;;6.70;72.20;;;;;;5056799;28;20967;-89
2021/04/14 06:55:59;;;;;;;12.23;7.00;;;6.80;71.60;;;;;;5057948;28;20441;-90
2021/04/14 06:58:35;;;;;;;15.20;7.70;;;6.90;71.10;;;;;;5057533;28;20939;-88
2021/04/14 07:01:05;;;;;;;13.23;6.47;;;7.00;70.30;;;;;;5058180;28;20446;-88
2021/04/14 07:03:40;;;;;;;11.33;6.97;;;7.20;71.40;;;;;;5058071;28;20470;-88
2021/04/14 07:06:11;;;;;;;19.23;7.33;;;7.40;70.70;;;;;;5058945;28;20491;-88
2021/04/14 07:09:00;;;;;;;12.30;6.97;;;7.60;70.10;;;;;;5058642;28;20796;-88
2021/04/14 07:11:34;;;;;;;11.30;7.57;;;7.80;69.10;;;;;;5059626;28;20482;-89
2021/04/14 07:14:01;;;;;;;7.90;6.23;;;8.00;67.60;;;;;;5057337;28;20839;-88
2021/04/14 07:16:39;;;;;;;8.70;6.67;;;8.10;66.40;;;;;;5056701;28;20450;-89
2021/04/14 07:19:15;;;;;;;11.47;6.80;;;8.30;66.30;;;;;;5056791;28;20426;-89
2021/04/14 07:21:49;;;;;;;10.70;6.50;;;8.40;66.10;;;;;;5057005;28;20433;-89
2021/04/14 07:24:23;;;;;;;11.13;6.20;;;8.60;65.00;;;;;;5058322;28;20455;-89
2021/04/14 07:26:58;;;;;;;10.10;6.47;;;8.80;64.80;;;;;;5056915;28;20835;-90
2021/04/14 07:29:33;;;;;;;8.90;6.30;;;8.90;64.70;;;;;;5058095;28;20473;-90
2021/04/14 07:32:18;;;;;;;9.50;6.50;;;9.10;64.60;;;;;;5056818;28;20462;-89
2021/04/14 07:35:09;;;;;;;8.70;5.67;;;9.30;63.00;;;;;;5056986;28;20474;-89
2021/04/14 07:37:42;;;;;;;9.30;6.37;;;9.50;62.40;;;;;;5057333;28;20450;-89
2021/04/14 07:40:13;;;;;;;14.13;7.20;;;9.70;60.70;;;;;;5057731;28;20880;-88
2021/04/14 07:42:49;;;;;;;15.53;7.10;;;9.90;59.50;;;;;;5056988;28;20495;-88
2021/04/14 07:45:22;;;;;;;18.10;8.00;;;10.10;57.80;;;;;;5057960;28;20453;-89
2021/04/14 07:47:59;;;;;;;12.40;7.80;;;10.20;57.20;;;;;;5056279;28;20810;-88
2021/04/14 07:50:33;;;;;;;8.07;6.50;;;10.40;57.00;;;;;;5058106;28;20449;-89
2021/04/14 07:52:59;;;;;;;12.07;6.93;;;10.50;56.60;;;;;;5057896;28;20495;-88
2021/04/14 07:55:29;;;;;;;10.90;7.83;;;10.60;55.90;;;;;;5056129;28;20545;-88
2021/04/14 07:58:07;;;;;;;15.80;8.20;;;10.60;55.20;;;;;;5057167;28;20774;-88
2021/04/14 08:00:39;;;;;;;15.10;7.30;;;10.70;55.40;;;;;;5057589;28;20540;-88
2021/04/14 08:03:11;;;;;;;9.20;7.17;;;10.70;55.50;;;;;;5057664;28;21048;-88
2021/04/14 08:05:40;;;;;;;18.23;7.80;;;10.70;55.80;;;;;;5060109;28;20460;-88
2021/04/14 08:08:24;;;;;;;14.20;7.80;;;10.80;55.70;;;;;;5061093;28;20510;-89
2021/04/14 08:10:57;;;;;;;16.40;8.93;;;10.80;55.50;;;;;;5059005;28;20533;-87
2021/04/14 08:13:28;;;;;;;10.63;7.30;;;10.90;55.80;;;;;;5057963;28;20485;-87
2021/04/14 08:15:55;;;;;;;11.53;7.57;;;10.90;56.10;;;;;;5057749;28;20530;-88
2021/04/14 08:18:26;;;;;;;15.63;9.70;;;11.00;56.50;;;;;;5059133;28;20410;-87
2021/04/14 08:21:06;;;;;;;13.77;8.10;;;11.10;56.50;;;;;;5061179;28;20446;-88
2021/04/14 08:23:33;;;;;;;20.20;9.50;;;11.10;56.30;;;;;;5060707;28;20978;-88
2021/04/14 08:26:01;;;;;;;14.93;10.93;;;11.20;56.20;;;;;;5056547;28;20438;-88
2021/04/14 08:28:31;;;;;;;14.20;11.67;;;11.30;56.70;;;;;;5055650;28;20499;-89
2021/04/14 08:31:09;;;;;;;15.47;9.67;;;11.50;56.50;;;;;;5058462;28;20437;-87
2021/04/14 08:33:36;;;;;;;12.73;10.10;;;11.70;55.90;;;;;;5058633;28;20489;-88
2021/04/14 08:36:13;;;;;;;13.37;9.10;;;11.90;56.20;;;;;;5057927;28;20446;-88
2021/04/14 08:38:39;;;;;;;13.47;9.23;;;12.20;55.70;;;;;;5057019;28;20775;-89
2021/04/14 08:41:06;;;;;;;13.57;9.20;;;12.40;55.00;;;;;;5055469;28;20430;-89
2021/04/14 08:43:38;;;;;;;13.87;9.67;;;12.50;53.80;;;;;;5055486;28;20454;-88
2021/04/14 08:46:13;;;;;;;11.00;8.83;;;12.60;53.30;;;;;;5055893;28;20863;-88
2021/04/14 08:48:42;;;;;;;11.90;8.80;;;12.80;52.80;;;;;;5055966;28;20441;-89
2021/04/14 08:51:11;;;;;;;10.17;8.50;;;12.90;52.20;;;;;;5056452;28;20457;-89
2021/04/14 08:53:41;;;;;;;9.13;7.40;;;12.90;51.80;;;;;;5056767;28;20533;-89
2021/04/14 08:56:08;;;;;;;10.37;9.27;;;12.90;51.60;;;;;;5055330;28;20442;-89
2021/04/14 08:58:36;;;;;;;9.77;8.77;;;12.90;51.30;;;;;;5056430;28;20465;-89
2021/04/14 09:01:04;;;;;;;9.37;7.13;;;13.00;51.40;;;;;;5055801;28;20457;-89
2021/04/14 09:03:35;;;;;;;9.97;8.90;;;13.10;50.90;;;;;;5055205;28;20478;-90
2021/04/14 09:06:01;;;;;;;12.07;7.50;;;13.20;50.70;;;;;;5055383;28;20417;-88
2021/04/14 09:08:43;;;;;;;9.10;7.93;;;13.20;50.20;;;;;;5055638;28;20445;-90
2021/04/14 09:11:28;;;;;;;9.03;8.17;;;13.30;50.10;;;;;;5056259;28;20457;-89
2021/04/14 09:14:02;;;;;;;10.70;8.93;;;13.30;49.80;;;;;;5056442;28;20480;-90
2021/04/14 09:16:36;;;;;;;9.50;8.20;;;13.30;49.60;;;;;;5056076;28;20471;-89
2021/04/14 09:19:14;;;;;;;11.30;8.77;;;13.30;49.20;;;;;;5055548;28;20506;-90
2021/04/14 09:21:48;;;;;;;8.37;7.57;;;13.30;49.40;;;;;;5056176;28;20544;-88
2021/04/14 09:24:28;;;;;;;10.53;8.67;;;13.30;48.80;;;;;;5057774;28;20442;-89
2021/04/14 09:26:57;;;;;;;9.37;8.10;;;13.30;49.50;;;;;;5056573;28;20497;-89
2021/04/14 09:29:28;;;;;;;8.07;7.27;;;13.50;49.50;;;;;;5055751;28;20410;-89
2021/04/14 09:31:58;;;;;;;10.07;7.83;;;13.60;49.30;;;;;;5055272;28;20466;-89
2021/04/14 09:34:34;;;;;;;9.87;7.83;;;13.70;49.00;;;;;;5055839;28;20470;-88
2021/04/14 09:37:06;;;;;;;9.00;8.13;;;14.00;48.90;;;;;;5058278;28;20991;-88
2021/04/14 09:39:36;;;;;;;13.77;7.70;;;14.30;48.80;;;;;;5065501;28;20430;-87
2021/04/14 09:42:15;;;;;;;7.70;6.90;;;14.60;47.90;;;;;;5062533;28;20478;-89
2021/04/14 09:44:44;;;;;;;8.63;7.50;;;15.00;47.30;;;;;;5054667;28;20422;-89
2021/04/14 09:47:17;;;;;;;10.47;7.63;;;15.40;46.60;;;;;;5054488;28;20430;-89
2021/04/14 09:49:45;;;;;;;12.47;7.60;;;15.70;46.00;;;;;;5055615;28;20888;-88
2021/04/14 09:52:23;;;;;;;9.10;7.73;;;16.10;45.10;;;;;;5055150;28;20465;-88
2021/04/14 09:54:51;;;;;;;10.30;7.93;;;16.50;44.70;;;;;;5055394;28;20488;-89
2021/04/14 09:57:23;;;;;;;10.70;8.40;;;16.70;41.60;;;;;;5056418;28;20438;-88
2021/04/14 09:59:50;;;;;;;9.87;8.60;;;17.00;41.40;;;;;;5059356;28;20461;-88
2021/04/14 10:02:19;;;;;;;9.23;8.20;;;17.30;41.40;;;;;;5057851;28;20552;-89
2021/04/14 10:04:47;;;;;;;10.53;8.70;;;17.50;40.00;;;;;;5059109;28;20472;-88
2021/04/14 10:07:17;;;;;;;11.00;9.40;;;17.80;39.90;;;;;;5061326;28;20436;-89
2021/04/14 10:09:44;;;;;;;8.80;7.73;;;18.20;39.30;;;;;;5060662;28;20438;-87
2021/04/14 10:12:28;;;;;;;10.97;9.80;;;18.50;38.40;;;;;;5063478;28;20523;-88
2021/04/14 10:14:58;;;;;;;9.67;8.77;;;19.00;37.90;;;;;;5062562;28;20571;-86
2021/04/14 10:17:27;;;;;;;10.53;9.47;;;19.40;37.10;;;;;;5063620;28;20429;-86
2021/04/14 10:19:55;;;;;;;9.87;8.70;;;19.50;33.10;;;;;;5062918;28;20800;-86
2021/04/14 10:22:26;;;;;;;8.63;7.77;;;19.70;34.10;;;;;;5062751;28;20477;-87
2021/04/14 10:24:59;;;;;;;10.27;8.80;;;20.00;33.70;;;;;;5062942;28;20438;-87
2021/04/14 10:27:26;;;;;;;8.53;7.67;;;20.50;31.20;;;;;;5062739;28;20720;-87
2021/04/14 10:29:52;;;;;;;11.37;8.50;;;20.20;29.40;;;;;;5061529;28;20414;-87
2021/04/14 10:32:22;;;;;;;9.20;8.10;;;20.00;30.60;;;;;;5061863;28;20477;-87
2021/04/14 10:34:48;;;;;;;10.60;8.03;;;20.10;31.50;;;;;;5063141;28;21034;-87
2021/04/14 10:37:18;;;;;;;9.77;7.77;;;20.50;31.40;;;;;;5062846;28;20469;-87
2021/04/14 10:39:45;;;;;;;9.00;8.20;;;21.10;31.20;;;;;;5062268;28;20445;-86
2021/04/14 10:42:15;;;;;;;8.97;8.03;;;21.60;28.10;;;;;;5061016;28;20453;-87
2021/04/14 10:44:42;;;;;;;7.97;7.17;;;21.50;27.20;;;;;;5060912;28;20440;-87
2021/04/14 10:47:13;;;;;;;8.50;7.60;;;21.60;28.60;;;;;;5059400;28;20469;-89
2021/04/14 10:49:41;;;;;;;8.10;7.30;;;22.00;28.60;;;;;;5057662;28;20448;-89
2021/04/14 10:52:13;;;;;;;6.70;6.10;;;22.50;26.40;;;;;;5057436;28;20457;-89
2021/04/14 10:54:44;;;;;;;7.40;6.60;;;23.10;26.40;;;;;;5059669;28;20523;-90
2021/04/14 10:57:14;;;;;;;9.40;8.20;;;23.90;25.60;;;;;;5056370;28;20835;-90
2021/04/14 10:59:41;;;;;;;8.73;7.63;;;24.30;23.30;;;;;;5057539;28;20445;-89
2021/04/14 11:02:12;;;;;;;9.40;8.60;;;24.60;24.20;;;;;;5056790;28;20974;-89
2021/04/14 11:04:42;;;;;;;8.23;7.53;;;25.20;23.20;;;;;;5059472;28;20441;-89
2021/04/14 11:07:13;;;;;;;9.10;8.20;;;24.10;22.40;;;;;;5063012;28;20413;-89
2021/04/14 11:09:41;;;;;;;8.37;7.57;;;22.80;23.30;;;;;;5058410;28;20468;-89
2021/04/14 11:12:12;;;;;;;7.80;7.20;;;22.50;25.30;;;;;;5055650;28;20470;-89
2021/04/14 11:14:39;;;;;;;7.47;6.77;;;22.90;27.40;;;;;;5057205;28;20465;-88
2021/04/14 11:17:07;;;;;;;8.07;7.40;;;23.70;26.40;;;;;;5059395;28;20453;-88
2021/04/14 11:19:34;;;;;;;6.70;6.20;;;24.30;25.80;;;;;;5060011;28;20450;-88
2021/04/14 11:22:05;;;;;;;8.73;8.03;;;25.10;26.20;;;;;;5059097;28;20470;-88
2021/04/14 11:24:44;;;;;;;8.17;7.37;;;25.80;24.10;;;;;;5060473;28;20433;-86
2021/04/14 11:27:18;;;;;;;6.93;6.33;;;26.50;24.20;;;;;;5063342;28;20421;-86
2021/04/14 11:29:45;;;;;;;7.77;6.97;;;27.30;23.50;;;;;;5059925;28;20437;-86
2021/04/14 11:32:46;;;;;;;5.90;5.40;;;28.00;22.80;;;;;;5056431;28;20481;-86
2021/04/14 11:36:00;;;;;;;7.90;7.30;;;28.80;22.20;;;;;;5057797;28;20792;-86
2021/04/14 11:38:37;;;;;;;8.10;7.30;;;29.50;21.40;;;;;;5047136;28;20531;-88
2021/04/14 11:41:16;;;;;;;7.73;7.03;;;30.10;21.10;;;;;;5058890;28;20969;-86
2021/04/14 11:44:29;;;;;;;7.50;6.90;;;30.60;20.40;;;;;;5055988;28;20465;-87
2021/04/14 11:46:59;;;;;;;7.67;6.97;;;31.10;20.00;;;;;;5055654;28;20449;-87
2021/04/14 11:49:33;;;;;;;7.50;6.80;;;31.50;19.20;;;;;;5056020;28;20453;-88
2021/04/14 11:52:23;;;;;;;8.53;7.73;;;31.80;19.30;;;;;;5057937;28;20511;-89
2021/04/14 11:54:57;;;;;;;7.73;7.13;;;32.30;18.90;;;;;;5064041;28;20496;-86
2021/04/14 11:57:26;;;;;;;8.23;7.63;;;32.80;18.60;;;;;;5056584;28;20453;-88
2021/04/14 12:01:01;;;;;;;8.00;7.40;;;33.20;17.80;;;;;;5056068;28;20535;-87
2021/04/14 12:03:45;;;;;;;8.27;7.57;;;33.70;17.70;;;;;;5055519;28;20923;-88
2021/04/14 12:09:09;;;;;;;7.50;6.83;;;34.50;16.60;;;;;;5044498;28;20449;-88
2021/04/14 12:11:38;;;;;;;8.50;7.90;;;34.80;16.00;;;;;;5056053;28;20473;-86
2021/04/14 12:14:16;;;;;;;8.80;8.00;;;34.10;16.20;;;;;;5056456;28;20493;-87
2021/04/14 12:16:42;;;;;;;9.30;8.60;;;32.90;17.00;;;;;;5057906;28;20812;-86
2021/04/14 12:19:20;;;;;;;9.30;8.50;;;30.80;17.00;;;;;;5057095;28;20454;-88
2021/04/14 12:21:54;;;;;;;10.30;9.23;;;29.20;19.00;;;;;;5055630;28;20414;-85
2021/04/14 12:24:21;;;;;;;9.00;8.30;;;27.00;21.60;;;;;;5056171;28;20465;-85
2021/04/14 12:26:48;;;;;;;8.50;7.70;;;24.90;24.00;;;;;;5067438;28;20898;-88
2021/04/14 12:29:15;;;;;;;9.87;8.87;;;23.40;26.20;;;;;;5059153;28;20438;-89
2021/04/14 12:31:41;;;;;;;11.10;9.17;;;21.90;28.20;;;;;;5061804;28;20509;-89
2021/04/14 12:34:08;;;;;;;8.60;7.80;;;20.80;29.50;;;;;;5066528;28;20466;-88
2021/04/14 12:36:35;;;;;;;8.33;7.50;;;20.10;30.00;;;;;;5060992;28;20820;-89
2021/04/14 12:39:03;;;;;;;9.20;8.30;;;19.70;30.40;;;;;;5064013;28;20430;-89
2021/04/14 12:41:29;;;;;;;7.87;7.07;;;19.90;31.10;;;;;;5062577;28;20434;-90
2021/04/14 12:47:19;;;;;;;7.40;6.17;;;20.00;29.90;;;;;;5031253;28;20513;-89
2021/04/14 12:52:45;;;;;;;6.90;6.30;;;21.20;28.00;;;;;;5052443;28;20814;-89
2021/04/14 12:55:15;;;;;;;7.10;6.40;;;21.30;27.00;;;;;;5055993;28;20454;-90
2021/04/14 12:57:43;;;;;;;9.33;8.43;;;21.30;27.50;;;;;;5054386;28;20442;-89
2021/04/14 13:00:13;;;;;;;7.57;6.97;;;21.10;26.70;;;;;;5054771;28;20457;-89
2021/04/14 13:02:42;;;;;;;8.47;7.60;;;20.70;27.10;;;;;;5054611;28;20477;-90
2021/04/14 13:05:14;;;;;;;8.40;7.53;;;20.10;27.10;;;;;;5054413;28;20453;-89
2021/04/14 13:07:47;;;;;;;7.90;7.10;;;20.00;27.60;;;;;;5058439;28;20438;-87
2021/04/14 13:10:16;;;;;;;10.63;9.57;;;19.70;27.90;;;;;;5059942;28;20438;-87
2021/04/14 13:12:42;;;;;;;10.00;9.03;;;19.30;26.80;;;;;;5059599;28;20473;-87
2021/04/14 13:15:10;;;;;;;9.33;8.57;;;18.40;28.20;;;;;;5060974;28;20469;-87
2021/04/14 13:20:26;;;;;;;10.23;9.30;;;17.50;28.80;;;;;;5054654;28;21022;-87
2021/04/14 13:22:59;;;;;;;9.73;8.67;;;17.10;30.30;;;;;;5058562;28;20469;-87
2021/04/14 13:25:31;;;;;;;10.37;9.00;;;16.90;30.00;;;;;;5058214;28;20455;-87
2021/04/14 13:28:02;;;;;;;9.70;8.80;;;16.60;31.50;;;;;;5057263;28;20446;-88
2021/04/14 13:30:32;;;;;;;11.40;10.30;;;16.60;32.10;;;;;;5055553;28;20410;-88